sensor_id;sensor_type;location;lat;lon;timestamp;P1;durP1;ratioP1;P2;durP2;ratioP2
66721;SDS011;53633;49.932;10.884;2024-02-21T00:02:19;9.75;;;1.90;;
66721;SDS011;53633;49.932;10.884;2024-02-21T00:04:46;11.52;;;2.63;;
66721;SDS011;53633;49.932;10.884;2024-02-21T00:07:17;12.68;;;2.50;;
66721;SDS011;53633;49.932;10.884;2024-02-21T00:09:46;15.10;;;2.23;;
66721;SDS011;53633;49.932;10.884;2024-02-21T00:12:13;9.10;;;1.77;;
66721;SDS011;53633;49.932;10.884;2024-02-21T00:14:41;8.10;;;1.98;;
66721;SDS011;53633;49.932;10.884;2024-02-21T00:17:09;11.45;;;2.05;;
66721;SDS011;53633;49.932;10.884;2024-02-21T00:19:36;9.60;;;2.20;;
66721;SDS011;53633;49.932;10.884;2024-02-21T00:22:03;9.97;;;2.67;;
66721;SDS011;53633;49.932;10.884;2024-02-21T00:24:30;11.25;;;2.40;;
66721;SDS011;53633;49.932;10.884;2024-02-21T00:26:58;10.60;;;2.22;;
66721;SDS011;53633;49.932;10.884;2024-02-21T00:29:26;9.32;;;2.05;;
66721;SDS011;53633;49.932;10.884;2024-02-21T00:31:53;11.65;;;2.45;;
66721;SDS011;53633;49.932;10.884;2024-02-21T00:34:21;8.87;;;1.93;;
66721;SDS011;53633;49.932;10.884;2024-02-21T00:36:48;9.15;;;2.58;;
66721;SDS011;53633;49.932;10.884;2024-02-21T00:39:15;11.55;;;2.00;;
66721;SDS011;53633;49.932;10.884;2024-02-21T00:41:42;10.57;;;2.28;;
66721;SDS011;53633;49.932;10.884;2024-02-21T00:44:10;11.52;;;2.40;;
66721;SDS011;53633;49.932;10.884;2024-02-21T00:46:37;13.73;;;2.53;;
66721;SDS011;53633;49.932;10.884;2024-02-21T00:49:05;11.70;;;1.92;;
66721;SDS011;53633;49.932;10.884;2024-02-21T00:51:32;10.43;;;2.28;;
66721;SDS011;53633;49.932;10.884;2024-02-21T00:53:59;12.60;;;2.20;;
66721;SDS011;53633;49.932;10.884;2024-02-21T00:56:27;11.73;;;2.22;;
66721;SDS011;53633;49.932;10.884;2024-02-21T00:58:54;12.30;;;2.07;;
66721;SDS011;53633;49.932;10.884;2024-02-21T01:01:23;8.93;;;2.15;;
66721;SDS011;53633;49.932;10.884;2024-02-21T01:03:51;9.68;;;2.38;;
66721;SDS011;53633;49.932;10.884;2024-02-21T01:06:18;11.93;;;2.03;;
66721;SDS011;53633;49.932;10.884;2024-02-21T01:08:48;9.07;;;2.40;;
66721;SDS011;53633;49.932;10.884;2024-02-21T01:11:16;12.57;;;2.10;;
66721;SDS011;53633;49.932;10.884;2024-02-21T01:13:45;7.03;;;1.88;;
66721;SDS011;53633;49.932;10.884;2024-02-21T01:16:12;11.80;;;2.63;;
66721;SDS011;53633;49.932;10.884;2024-02-21T01:18:41;10.48;;;2.33;;
66721;SDS011;53633;49.932;10.884;2024-02-21T01:21:09;11.40;;;2.55;;
66721;SDS011;53633;49.932;10.884;2024-02-21T01:23:36;6.57;;;2.10;;
66721;SDS011;53633;49.932;10.884;2024-02-21T01:26:03;11.82;;;2.35;;
66721;SDS011;53633;49.932;10.884;2024-02-21T01:28:30;11.07;;;2.13;;
66721;SDS011;53633;49.932;10.884;2024-02-21T01:30:59;7.85;;;1.95;;
66721;SDS011;53633;49.932;10.884;2024-02-21T01:33:26;14.27;;;3.17;;
66721;SDS011;53633;49.932;10.884;2024-02-21T01:35:55;9.80;;;1.83;;
66721;SDS011;53633;49.932;10.884;2024-02-21T01:38:22;12.88;;;2.40;;
66721;SDS011;53633;49.932;10.884;2024-02-21T01:40:49;12.65;;;2.08;;
66721;SDS011;53633;49.932;10.884;2024-02-21T01:43:16;10.80;;;1.85;;
66721;SDS011;53633;49.932;10.884;2024-02-21T01:45:46;10.43;;;2.42;;
66721;SDS011;53633;49.932;10.884;2024-02-21T01:48:16;12.90;;;2.20;;
66721;SDS011;53633;49.932;10.884;2024-02-21T01:50:44;9.63;;;2.20;;
66721;SDS011;53633;49.932;10.884;2024-02-21T01:55:51;10.85;;;2.00;;
66721;SDS011;53633;49.932;10.884;2024-02-21T01:58:20;13.45;;;1.90;;
66721;SDS011;53633;49.932;10.884;2024-02-21T02:00:47;14.27;;;2.13;;
66721;SDS011;53633;49.932;10.884;2024-02-21T02:03:15;13.40;;;2.50;;
66721;SDS011;53633;49.932;10.884;2024-02-21T02:05:43;11.77;;;2.40;;
66721;SDS011;53633;49.932;10.884;2024-02-21T02:08:11;8.90;;;1.90;;
66721;SDS011;53633;49.932;10.884;2024-02-21T02:10:40;10.48;;;1.90;;
66721;SDS011;53633;49.932;10.884;2024-02-21T02:13:08;9.67;;;2.57;;
66721;SDS011;53633;49.932;10.884;2024-02-21T02:15:38;9.40;;;2.22;;
66721;SDS011;53633;49.932;10.884;2024-02-21T02:18:06;9.25;;;2.15;;
66721;SDS011;53633;49.932;10.884;2024-02-21T02:20:33;9.40;;;2.10;;
66721;SDS011;53633;49.932;10.884;2024-02-21T02:23:00;9.88;;;2.15;;
66721;SDS011;53633;49.932;10.884;2024-02-21T02:25:34;12.47;;;2.70;;
66721;SDS011;53633;49.932;10.884;2024-02-21T02:28:01;11.57;;;2.20;;
66721;SDS011;53633;49.932;10.884;2024-02-21T02:30:31;9.70;;;2.20;;
66721;SDS011;53633;49.932;10.884;2024-02-21T02:32:58;13.32;;;2.33;;
66721;SDS011;53633;49.932;10.884;2024-02-21T02:35:26;13.32;;;2.65;;
66721;SDS011;53633;49.932;10.884;2024-02-21T02:37:54;11.97;;;2.20;;
66721;SDS011;53633;49.932;10.884;2024-02-21T02:40:21;10.32;;;2.33;;
66721;SDS011;53633;49.932;10.884;2024-02-21T02:42:49;13.13;;;2.60;;
66721;SDS011;53633;49.932;10.884;2024-02-21T02:45:18;14.20;;;2.50;;
66721;SDS011;53633;49.932;10.884;2024-02-21T02:47:46;9.75;;;2.25;;
66721;SDS011;53633;49.932;10.884;2024-02-21T02:50:13;9.60;;;2.50;;
66721;SDS011;53633;49.932;10.884;2024-02-21T02:52:40;8.88;;;2.28;;
66721;SDS011;53633;49.932;10.884;2024-02-21T02:55:07;14.20;;;2.85;;
66721;SDS011;53633;49.932;10.884;2024-02-21T02:57:34;11.88;;;2.55;;
66721;SDS011;53633;49.932;10.884;2024-02-21T03:00:03;8.73;;;1.90;;
66721;SDS011;53633;49.932;10.884;2024-02-21T03:02:33;12.10;;;1.90;;
66721;SDS011;53633;49.932;10.884;2024-02-21T03:05:00;10.77;;;2.40;;
66721;SDS011;53633;49.932;10.884;2024-02-21T03:07:28;13.32;;;2.17;;
66721;SDS011;53633;49.932;10.884;2024-02-21T03:09:55;12.25;;;2.60;;
66721;SDS011;53633;49.932;10.884;2024-02-21T03:12:31;12.18;;;2.30;;
66721;SDS011;53633;49.932;10.884;2024-02-21T03:14:58;14.77;;;2.10;;
66721;SDS011;53633;49.932;10.884;2024-02-21T03:17:26;9.05;;;2.10;;
66721;SDS011;53633;49.932;10.884;2024-02-21T03:19:54;11.55;;;1.98;;
66721;SDS011;53633;49.932;10.884;2024-02-21T03:22:21;11.38;;;2.70;;
66721;SDS011;53633;49.932;10.884;2024-02-21T03:24:48;12.63;;;2.75;;
66721;SDS011;53633;49.932;10.884;2024-02-21T03:27:16;13.07;;;2.53;;
66721;SDS011;53633;49.932;10.884;2024-02-21T03:29:47;10.63;;;2.80;;
66721;SDS011;53633;49.932;10.884;2024-02-21T03:32:13;11.77;;;3.00;;
66721;SDS011;53633;49.932;10.884;2024-02-21T03:34:42;12.25;;;2.55;;
66721;SDS011;53633;49.932;10.884;2024-02-21T03:37:09;13.05;;;2.85;;
66721;SDS011;53633;49.932;10.884;2024-02-21T03:39:35;12.97;;;2.77;;
66721;SDS011;53633;49.932;10.884;2024-02-21T03:42:03;11.93;;;2.35;;
66721;SDS011;53633;49.932;10.884;2024-02-21T03:44:31;11.07;;;2.50;;
66721;SDS011;53633;49.932;10.884;2024-02-21T03:46:58;13.93;;;2.97;;
66721;SDS011;53633;49.932;10.884;2024-02-21T03:49:26;10.65;;;2.78;;
66721;SDS011;53633;49.932;10.884;2024-02-21T03:51:55;10.50;;;2.30;;
66721;SDS011;53633;49.932;10.884;2024-02-21T03:54:22;11.30;;;3.15;;
66721;SDS011;53633;49.932;10.884;2024-02-21T03:56:50;15.07;;;2.63;;
66721;SDS011;53633;49.932;10.884;2024-02-21T03:59:17;13.20;;;2.50;;
66721;SDS011;53633;49.932;10.884;2024-02-21T04:01:44;9.88;;;2.25;;
66721;SDS011;53633;49.932;10.884;2024-02-21T04:04:11;10.27;;;2.30;;
66721;SDS011;53633;49.932;10.884;2024-02-21T04:06:45;10.43;;;2.97;;
66721;SDS011;53633;49.932;10.884;2024-02-21T04:09:14;14.40;;;2.63;;
66721;SDS011;53633;49.932;10.884;2024-02-21T04:11:41;11.45;;;2.40;;
66721;SDS011;53633;49.932;10.884;2024-02-21T04:14:08;9.35;;;2.58;;
66721;SDS011;53633;49.932;10.884;2024-02-21T04:16:35;13.33;;;2.83;;
66721;SDS011;53633;49.932;10.884;2024-02-21T04:19:02;9.80;;;2.78;;
66721;SDS011;53633;49.932;10.884;2024-02-21T04:21:29;14.05;;;3.10;;
66721;SDS011;53633;49.932;10.884;2024-02-21T04:23:56;11.60;;;2.92;;
66721;SDS011;53633;49.932;10.884;2024-02-21T04:26:26;12.85;;;3.17;;
66721;SDS011;53633;49.932;10.884;2024-02-21T04:28:53;15.23;;;2.87;;
66721;SDS011;53633;49.932;10.884;2024-02-21T04:31:21;10.25;;;2.72;;
66721;SDS011;53633;49.932;10.884;2024-02-21T04:33:48;12.85;;;2.42;;
66721;SDS011;53633;49.932;10.884;2024-02-21T04:36:17;11.80;;;2.85;;
66721;SDS011;53633;49.932;10.884;2024-02-21T04:38:51;14.00;;;3.05;;
66721;SDS011;53633;49.932;10.884;2024-02-21T04:41:18;13.37;;;2.70;;
66721;SDS011;53633;49.932;10.884;2024-02-21T04:43:47;15.43;;;2.80;;
66721;SDS011;53633;49.932;10.884;2024-02-21T04:46:14;13.00;;;2.72;;
66721;SDS011;53633;49.932;10.884;2024-02-21T04:48:41;9.85;;;3.08;;
66721;SDS011;53633;49.932;10.884;2024-02-21T04:51:11;11.73;;;2.90;;
66721;SDS011;53633;49.932;10.884;2024-02-21T04:53:38;15.37;;;3.77;;
66721;SDS011;53633;49.932;10.884;2024-02-21T04:56:05;13.60;;;3.50;;
66721;SDS011;53633;49.932;10.884;2024-02-21T04:58:33;12.13;;;3.20;;
66721;SDS011;53633;49.932;10.884;2024-02-21T05:01:05;10.50;;;2.92;;
66721;SDS011;53633;49.932;10.884;2024-02-21T05:03:32;14.95;;;3.30;;
66721;SDS011;53633;49.932;10.884;2024-02-21T05:05:59;13.43;;;3.00;;
66721;SDS011;53633;49.932;10.884;2024-02-21T05:08:27;12.23;;;3.35;;
66721;SDS011;53633;49.932;10.884;2024-02-21T05:10:54;13.38;;;3.47;;
66721;SDS011;53633;49.932;10.884;2024-02-21T05:13:21;11.88;;;2.65;;
66721;SDS011;53633;49.932;10.884;2024-02-21T05:15:49;11.73;;;2.80;;
66721;SDS011;53633;49.932;10.884;2024-02-21T05:18:22;10.43;;;2.70;;
66721;SDS011;53633;49.932;10.884;2024-02-21T05:20:50;13.32;;;2.70;;
66721;SDS011;53633;49.932;10.884;2024-02-21T05:23:18;13.15;;;3.13;;
66721;SDS011;53633;49.932;10.884;2024-02-21T05:25:45;9.50;;;2.50;;
66721;SDS011;53633;49.932;10.884;2024-02-21T05:28:13;14.23;;;3.03;;
66721;SDS011;53633;49.932;10.884;2024-02-21T05:30:40;12.03;;;2.80;;
66721;SDS011;53633;49.932;10.884;2024-02-21T05:33:07;13.93;;;3.08;;
66721;SDS011;53633;49.932;10.884;2024-02-21T05:35:36;14.65;;;2.75;;
66721;SDS011;53633;49.932;10.884;2024-02-21T05:38:03;17.83;;;3.10;;
66721;SDS011;53633;49.932;10.884;2024-02-21T05:40:32;11.48;;;2.67;;
66721;SDS011;53633;49.932;10.884;2024-02-21T05:42:59;12.03;;;3.13;;
66721;SDS011;53633;49.932;10.884;2024-02-21T05:45:26;15.40;;;3.33;;
66721;SDS011;53633;49.932;10.884;2024-02-21T05:47:53;12.23;;;2.95;;
66721;SDS011;53633;49.932;10.884;2024-02-21T05:50:20;13.20;;;3.05;;
66721;SDS011;53633;49.932;10.884;2024-02-21T05:52:50;15.10;;;3.08;;
66721;SDS011;53633;49.932;10.884;2024-02-21T05:55:18;8.97;;;2.60;;
66721;SDS011;53633;49.932;10.884;2024-02-21T05:57:47;15.32;;;2.95;;
66721;SDS011;53633;49.932;10.884;2024-02-21T06:00:14;12.95;;;3.10;;
66721;SDS011;53633;49.932;10.884;2024-02-21T06:02:41;13.48;;;2.90;;
66721;SDS011;53633;49.932;10.884;2024-02-21T06:05:08;13.48;;;3.05;;
66721;SDS011;53633;49.932;10.884;2024-02-21T06:07:38;12.93;;;2.63;;
66721;SDS011;53633;49.932;10.884;2024-02-21T06:10:10;14.90;;;2.95;;
66721;SDS011;53633;49.932;10.884;2024-02-21T06:12:40;11.57;;;3.42;;
66721;SDS011;53633;49.932;10.884;2024-02-21T06:15:07;14.98;;;3.20;;
66721;SDS011;53633;49.932;10.884;2024-02-21T06:17:35;10.55;;;3.35;;
66721;SDS011;53633;49.932;10.884;2024-02-21T06:20:02;9.33;;;2.80;;
66721;SDS011;53633;49.932;10.884;2024-02-21T06:22:30;13.82;;;3.45;;
66721;SDS011;53633;49.932;10.884;2024-02-21T06:24:57;12.20;;;3.20;;
66721;SDS011;53633;49.932;10.884;2024-02-21T06:27:26;10.27;;;2.90;;
66721;SDS011;53633;49.932;10.884;2024-02-21T06:29:59;14.70;;;3.17;;
66721;SDS011;53633;49.932;10.884;2024-02-21T06:32:30;14.20;;;2.83;;
66721;SDS011;53633;49.932;10.884;2024-02-21T06:34:59;12.32;;;2.90;;
66721;SDS011;53633;49.932;10.884;2024-02-21T06:37:31;10.32;;;2.97;;
66721;SDS011;53633;49.932;10.884;2024-02-21T06:39:59;13.25;;;3.00;;
66721;SDS011;53633;49.932;10.884;2024-02-21T06:42:29;12.13;;;2.88;;
66721;SDS011;53633;49.932;10.884;2024-02-21T06:44:58;13.67;;;3.30;;
66721;SDS011;53633;49.932;10.884;2024-02-21T06:47:25;18.95;;;3.47;;
66721;SDS011;53633;49.932;10.884;2024-02-21T06:49:55;12.10;;;3.67;;
66721;SDS011;53633;49.932;10.884;2024-02-21T06:52:23;13.00;;;3.45;;
66721;SDS011;53633;49.932;10.884;2024-02-21T06:54:51;13.35;;;4.38;;
66721;SDS011;53633;49.932;10.884;2024-02-21T06:57:19;10.27;;;3.37;;
66721;SDS011;53633;49.932;10.884;2024-02-21T06:59:55;13.18;;;3.38;;
66721;SDS011;53633;49.932;10.884;2024-02-21T07:02:23;14.43;;;4.15;;
66721;SDS011;53633;49.932;10.884;2024-02-21T07:04:50;15.90;;;3.90;;
66721;SDS011;53633;49.932;10.884;2024-02-21T07:07:20;12.38;;;3.63;;
66721;SDS011;53633;49.932;10.884;2024-02-21T07:09:50;12.70;;;3.47;;
66721;SDS011;53633;49.932;10.884;2024-02-21T07:12:19;11.25;;;3.63;;
66721;SDS011;53633;49.932;10.884;2024-02-21T07:14:48;13.80;;;3.78;;
66721;SDS011;53633;49.932;10.884;2024-02-21T07:20:07;11.93;;;4.05;;
66721;SDS011;53633;49.932;10.884;2024-02-21T07:22:35;13.00;;;3.63;;
66721;SDS011;53633;49.932;10.884;2024-02-21T07:25:02;14.73;;;3.63;;
66721;SDS011;53633;49.932;10.884;2024-02-21T07:27:32;11.30;;;3.95;;
66721;SDS011;53633;49.932;10.884;2024-02-21T07:30:01;11.90;;;3.85;;
66721;SDS011;53633;49.932;10.884;2024-02-21T07:32:28;10.93;;;3.97;;
66721;SDS011;53633;49.932;10.884;2024-02-21T07:35:00;12.73;;;3.90;;
66721;SDS011;53633;49.932;10.884;2024-02-21T07:37:29;15.77;;;4.50;;
66721;SDS011;53633;49.932;10.884;2024-02-21T07:40:00;10.95;;;3.80;;
66721;SDS011;53633;49.932;10.884;2024-02-21T07:42:34;14.10;;;3.58;;
66721;SDS011;53633;49.932;10.884;2024-02-21T07:45:04;10.50;;;3.50;;
66721;SDS011;53633;49.932;10.884;2024-02-21T07:47:37;10.53;;;3.10;;
66721;SDS011;53633;49.932;10.884;2024-02-21T07:50:09;13.10;;;3.22;;
66721;SDS011;53633;49.932;10.884;2024-02-21T07:52:42;11.77;;;3.45;;
66721;SDS011;53633;49.932;10.884;2024-02-21T07:55:09;13.10;;;3.58;;
66721;SDS011;53633;49.932;10.884;2024-02-21T07:57:36;11.80;;;3.33;;
66721;SDS011;53633;49.932;10.884;2024-02-21T08:00:11;11.00;;;3.13;;
66721;SDS011;53633;49.932;10.884;2024-02-21T08:02:38;13.27;;;3.50;;
66721;SDS011;53633;49.932;10.884;2024-02-21T08:05:12;12.98;;;3.65;;
66721;SDS011;53633;49.932;10.884;2024-02-21T08:07:39;11.77;;;3.42;;
66721;SDS011;53633;49.932;10.884;2024-02-21T08:10:11;13.48;;;3.60;;
66721;SDS011;53633;49.932;10.884;2024-02-21T08:12:38;16.57;;;3.30;;
66721;SDS011;53633;49.932;10.884;2024-02-21T08:15:05;15.35;;;3.10;;
66721;SDS011;53633;49.932;10.884;2024-02-21T08:17:32;10.95;;;3.70;;
66721;SDS011;53633;49.932;10.884;2024-02-21T08:20:00;14.43;;;3.45;;
66721;SDS011;53633;49.932;10.884;2024-02-21T08:22:36;12.05;;;3.40;;
66721;SDS011;53633;49.932;10.884;2024-02-21T08:25:05;15.10;;;3.13;;
66721;SDS011;53633;49.932;10.884;2024-02-21T08:27:32;12.23;;;3.17;;
66721;SDS011;53633;49.932;10.884;2024-02-21T08:29:59;10.57;;;3.00;;
66721;SDS011;53633;49.932;10.884;2024-02-21T08:32:29;12.85;;;3.35;;
66721;SDS011;53633;49.932;10.884;2024-02-21T08:34:57;14.32;;;3.15;;
66721;SDS011;53633;49.932;10.884;2024-02-21T08:37:24;11.33;;;2.90;;
66721;SDS011;53633;49.932;10.884;2024-02-21T08:40:06;18.38;;;3.78;;
66721;SDS011;53633;49.932;10.884;2024-02-21T08:42:33;12.40;;;3.38;;
66721;SDS011;53633;49.932;10.884;2024-02-21T08:45:16;10.50;;;2.92;;
66721;SDS011;53633;49.932;10.884;2024-02-21T08:47:45;12.82;;;3.13;;
66721;SDS011;53633;49.932;10.884;2024-02-21T08:50:14;11.50;;;2.67;;
66721;SDS011;53633;49.932;10.884;2024-02-21T08:52:53;10.15;;;2.95;;
66721;SDS011;53633;49.932;10.884;2024-02-21T08:55:23;14.27;;;3.58;;
66721;SDS011;53633;49.932;10.884;2024-02-21T08:57:54;11.27;;;3.50;;
66721;SDS011;53633;49.932;10.884;2024-02-21T09:00:26;12.02;;;3.33;;
66721;SDS011;53633;49.932;10.884;2024-02-21T09:02:57;13.73;;;3.77;;
66721;SDS011;53633;49.932;10.884;2024-02-21T09:05:26;13.45;;;4.30;;
66721;SDS011;53633;49.932;10.884;2024-02-21T09:07:53;10.00;;;3.50;;
66721;SDS011;53633;49.932;10.884;2024-02-21T09:10:25;12.70;;;3.85;;
66721;SDS011;53633;49.932;10.884;2024-02-21T09:12:53;12.77;;;3.88;;
66721;SDS011;53633;49.932;10.884;2024-02-21T09:15:23;15.73;;;3.70;;
66721;SDS011;53633;49.932;10.884;2024-02-21T09:17:52;10.25;;;3.25;;
66721;SDS011;53633;49.932;10.884;2024-02-21T09:20:23;11.48;;;3.80;;
66721;SDS011;53633;49.932;10.884;2024-02-21T09:22:50;10.70;;;3.25;;
66721;SDS011;53633;49.932;10.884;2024-02-21T09:25:33;9.32;;;3.65;;
66721;SDS011;53633;49.932;10.884;2024-02-21T09:28:02;11.23;;;2.87;;
66721;SDS011;53633;49.932;10.884;2024-02-21T09:30:31;9.93;;;2.90;;
66721;SDS011;53633;49.932;10.884;2024-02-21T09:33:01;12.43;;;3.00;;
66721;SDS011;53633;49.932;10.884;2024-02-21T09:35:29;10.40;;;3.30;;
66721;SDS011;53633;49.932;10.884;2024-02-21T09:37:57;14.73;;;3.47;;
66721;SDS011;53633;49.932;10.884;2024-02-21T09:40:25;12.37;;;2.87;;
66721;SDS011;53633;49.932;10.884;2024-02-21T09:42:56;10.20;;;3.28;;
66721;SDS011;53633;49.932;10.884;2024-02-21T09:45:34;7.90;;;2.40;;
66721;SDS011;53633;49.932;10.884;2024-02-21T09:51:04;17.10;;;4.25;;
66721;SDS011;53633;49.932;10.884;2024-02-21T09:53:42;10.20;;;2.93;;
66721;SDS011;53633;49.932;10.884;2024-02-21T09:56:28;15.50;;;2.80;;
66721;SDS011;53633;49.932;10.884;2024-02-21T09:58:57;9.65;;;2.22;;
66721;SDS011;53633;49.932;10.884;2024-02-21T10:01:35;6.22;;;1.92;;
66721;SDS011;53633;49.932;10.884;2024-02-21T10:04:02;9.10;;;2.75;;
66721;SDS011;53633;49.932;10.884;2024-02-21T10:06:30;14.60;;;3.37;;
66721;SDS011;53633;49.932;10.884;2024-02-21T10:09:00;8.80;;;2.10;;
66721;SDS011;53633;49.932;10.884;2024-02-21T10:11:29;11.70;;;2.22;;
66721;SDS011;53633;49.932;10.884;2024-02-21T10:14:05;6.45;;;1.73;;
66721;SDS011;53633;49.932;10.884;2024-02-21T10:16:33;9.25;;;2.00;;
66721;SDS011;53633;49.932;10.884;2024-02-21T10:19:01;8.07;;;2.30;;
66721;SDS011;53633;49.932;10.884;2024-02-21T10:21:31;9.02;;;2.00;;
66721;SDS011;53633;49.932;10.884;2024-02-21T10:23:59;5.65;;;1.70;;
66721;SDS011;53633;49.932;10.884;2024-02-21T10:26:27;9.57;;;2.38;;
66721;SDS011;53633;49.932;10.884;2024-02-21T10:28:54;9.90;;;1.85;;
66721;SDS011;53633;49.932;10.884;2024-02-21T10:31:27;9.60;;;2.70;;
66721;SDS011;53633;49.932;10.884;2024-02-21T10:33:57;8.27;;;1.70;;
66721;SDS011;53633;49.932;10.884;2024-02-21T10:36:25;6.72;;;1.50;;
66721;SDS011;53633;49.932;10.884;2024-02-21T10:38:57;7.82;;;1.92;;
66721;SDS011;53633;49.932;10.884;2024-02-21T10:41:25;8.40;;;1.60;;
66721;SDS011;53633;49.932;10.884;2024-02-21T10:43:55;7.10;;;1.90;;
66721;SDS011;53633;49.932;10.884;2024-02-21T10:46:26;10.73;;;1.85;;
66721;SDS011;53633;49.932;10.884;2024-02-21T10:49:01;14.05;;;2.10;;
66721;SDS011;53633;49.932;10.884;2024-02-21T10:51:43;11.68;;;1.70;;
66721;SDS011;53633;49.932;10.884;2024-02-21T10:54:22;7.53;;;1.70;;
66721;SDS011;53633;49.932;10.884;2024-02-21T10:57:02;11.30;;;1.87;;
66721;SDS011;53633;49.932;10.884;2024-02-21T10:59:30;5.80;;;1.40;;
66721;SDS011;53633;49.932;10.884;2024-02-21T11:02:01;9.73;;;1.80;;
66721;SDS011;53633;49.932;10.884;2024-02-21T11:04:33;7.25;;;1.60;;
66721;SDS011;53633;49.932;10.884;2024-02-21T11:07:02;7.15;;;1.55;;
66721;SDS011;53633;49.932;10.884;2024-02-21T11:09:33;10.13;;;1.97;;
66721;SDS011;53633;49.932;10.884;2024-02-21T11:12:02;6.78;;;1.63;;
66721;SDS011;53633;49.932;10.884;2024-02-21T11:14:30;7.50;;;1.90;;
66721;SDS011;53633;49.932;10.884;2024-02-21T11:16:57;7.53;;;1.60;;
66721;SDS011;53633;49.932;10.884;2024-02-21T11:19:29;7.22;;;1.70;;
66721;SDS011;53633;49.932;10.884;2024-02-21T11:21:58;9.00;;;1.87;;
66721;SDS011;53633;49.932;10.884;2024-02-21T11:24:31;7.50;;;1.70;;
66721;SDS011;53633;49.932;10.884;2024-02-21T11:27:09;7.10;;;1.77;;
66721;SDS011;53633;49.932;10.884;2024-02-21T11:29:42;6.47;;;1.95;;
66721;SDS011;53633;49.932;10.884;2024-02-21T11:32:21;11.38;;;1.40;;
66721;SDS011;53633;49.932;10.884;2024-02-21T11:35:00;9.00;;;1.40;;
66721;SDS011;53633;49.932;10.884;2024-02-21T11:37:31;10.30;;;1.73;;
66721;SDS011;53633;49.932;10.884;2024-02-21T11:40:00;9.10;;;1.85;;
66721;SDS011;53633;49.932;10.884;2024-02-21T11:42:28;8.45;;;1.80;;
66721;SDS011;53633;49.932;10.884;2024-02-21T11:44:59;6.47;;;1.85;;
66721;SDS011;53633;49.932;10.884;2024-02-21T11:47:28;8.23;;;1.60;;
66721;SDS011;53633;49.932;10.884;2024-02-21T11:49:58;6.72;;;1.48;;
66721;SDS011;53633;49.932;10.884;2024-02-21T11:52:29;5.72;;;1.40;;
66721;SDS011;53633;49.932;10.884;2024-02-21T11:54:59;9.80;;;1.40;;
66721;SDS011;53633;49.932;10.884;2024-02-21T11:57:26;8.75;;;1.85;;
66721;SDS011;53633;49.932;10.884;2024-02-21T11:59:56;10.40;;;1.20;;
66721;SDS011;53633;49.932;10.884;2024-02-21T12:02:28;7.40;;;1.50;;
66721;SDS011;53633;49.932;10.884;2024-02-21T12:04:58;6.95;;;1.30;;
66721;SDS011;53633;49.932;10.884;2024-02-21T12:07:29;7.05;;;1.15;;
66721;SDS011;53633;49.932;10.884;2024-02-21T12:09:58;8.95;;;1.70;;
66721;SDS011;53633;49.932;10.884;2024-02-21T12:12:26;6.83;;;1.50;;
66721;SDS011;53633;49.932;10.884;2024-02-21T12:14:56;7.47;;;1.63;;
66721;SDS011;53633;49.932;10.884;2024-02-21T12:17:23;8.35;;;1.73;;
66721;SDS011;53633;49.932;10.884;2024-02-21T12:19:50;6.38;;;1.17;;
66721;SDS011;53633;49.932;10.884;2024-02-21T12:22:19;9.63;;;1.50;;
66721;SDS011;53633;49.932;10.884;2024-02-21T12:24:48;6.73;;;1.47;;
66721;SDS011;53633;49.932;10.884;2024-02-21T12:27:16;6.57;;;1.50;;
66721;SDS011;53633;49.932;10.884;2024-02-21T12:29:43;5.70;;;1.50;;
66721;SDS011;53633;49.932;10.884;2024-02-21T12:32:10;5.35;;;1.17;;
66721;SDS011;53633;49.932;10.884;2024-02-21T12:34:38;6.13;;;1.50;;
66721;SDS011;53633;49.932;10.884;2024-02-21T12:37:21;7.47;;;1.47;;
66721;SDS011;53633;49.932;10.884;2024-02-21T12:39:50;6.63;;;1.55;;
66721;SDS011;53633;49.932;10.884;2024-02-21T12:42:17;5.90;;;1.40;;
66721;SDS011;53633;49.932;10.884;2024-02-21T12:47:21;4.78;;;1.52;;
66721;SDS011;53633;49.932;10.884;2024-02-21T12:49:48;6.67;;;1.27;;
66721;SDS011;53633;49.932;10.884;2024-02-21T12:52:16;7.10;;;1.30;;
66721;SDS011;53633;49.932;10.884;2024-02-21T12:54:44;6.75;;;1.77;;
66721;SDS011;53633;49.932;10.884;2024-02-21T12:57:14;8.50;;;1.55;;
66721;SDS011;53633;49.932;10.884;2024-02-21T12:59:41;5.85;;;1.70;;
66721;SDS011;53633;49.932;10.884;2024-02-21T13:02:12;7.37;;;1.40;;
66721;SDS011;53633;49.932;10.884;2024-02-21T13:04:39;5.50;;;0.95;;
66721;SDS011;53633;49.932;10.884;2024-02-21T13:07:06;7.53;;;0.93;;
66721;SDS011;53633;49.932;10.884;2024-02-21T13:09:39;5.45;;;1.33;;
66721;SDS011;53633;49.932;10.884;2024-02-21T13:12:09;6.78;;;1.25;;
66721;SDS011;53633;49.932;10.884;2024-02-21T13:14:36;7.07;;;1.50;;
66721;SDS011;53633;49.932;10.884;2024-02-21T13:17:03;6.63;;;1.38;;
66721;SDS011;53633;49.932;10.884;2024-02-21T13:19:30;7.53;;;1.50;;
66721;SDS011;53633;49.932;10.884;2024-02-21T13:21:58;8.73;;;1.50;;
66721;SDS011;53633;49.932;10.884;2024-02-21T13:24:25;6.40;;;1.45;;
66721;SDS011;53633;49.932;10.884;2024-02-21T13:26:52;7.40;;;1.67;;
66721;SDS011;53633;49.932;10.884;2024-02-21T13:29:22;6.05;;;1.50;;
66721;SDS011;53633;49.932;10.884;2024-02-21T13:31:51;7.95;;;1.35;;
66721;SDS011;53633;49.932;10.884;2024-02-21T13:34:18;5.00;;;1.40;;
66721;SDS011;53633;49.932;10.884;2024-02-21T13:36:47;6.47;;;1.27;;
66721;SDS011;53633;49.932;10.884;2024-02-21T13:39:13;5.87;;;1.10;;
66721;SDS011;53633;49.932;10.884;2024-02-21T13:41:42;9.43;;;1.27;;
66721;SDS011;53633;49.932;10.884;2024-02-21T13:44:10;4.97;;;1.13;;
66721;SDS011;53633;49.932;10.884;2024-02-21T13:46:38;6.15;;;1.40;;
66721;SDS011;53633;49.932;10.884;2024-02-21T13:49:05;7.35;;;1.30;;
66721;SDS011;53633;49.932;10.884;2024-02-21T13:51:33;7.63;;;1.40;;
66721;SDS011;53633;49.932;10.884;2024-02-21T13:54:01;8.55;;;1.58;;
66721;SDS011;53633;49.932;10.884;2024-02-21T13:56:29;4.78;;;1.20;;
66721;SDS011;53633;49.932;10.884;2024-02-21T13:58:57;6.57;;;1.10;;
66721;SDS011;53633;49.932;10.884;2024-02-21T14:01:26;5.43;;;1.45;;
66721;SDS011;53633;49.932;10.884;2024-02-21T14:03:55;8.03;;;2.00;;
66721;SDS011;53633;49.932;10.884;2024-02-21T14:06:22;9.38;;;1.60;;
66721;SDS011;53633;49.932;10.884;2024-02-21T14:08:49;6.82;;;1.77;;
66721;SDS011;53633;49.932;10.884;2024-02-21T14:11:19;5.28;;;1.13;;
66721;SDS011;53633;49.932;10.884;2024-02-21T14:13:47;8.32;;;1.52;;
66721;SDS011;53633;49.932;10.884;2024-02-21T14:16:14;4.83;;;1.47;;
66721;SDS011;53633;49.932;10.884;2024-02-21T14:18:43;7.60;;;1.60;;
66721;SDS011;53633;49.932;10.884;2024-02-21T14:21:11;5.88;;;1.15;;
66721;SDS011;53633;49.932;10.884;2024-02-21T14:23:42;5.60;;;1.30;;
66721;SDS011;53633;49.932;10.884;2024-02-21T14:26:09;7.05;;;1.60;;
66721;SDS011;53633;49.932;10.884;2024-02-21T14:28:36;9.17;;;1.30;;
66721;SDS011;53633;49.932;10.884;2024-02-21T14:31:04;7.43;;;1.30;;
66721;SDS011;53633;49.932;10.884;2024-02-21T14:33:34;7.10;;;1.15;;
66721;SDS011;53633;49.932;10.884;2024-02-21T14:36:03;6.20;;;1.40;;
66721;SDS011;53633;49.932;10.884;2024-02-21T14:38:33;6.38;;;1.85;;
66721;SDS011;53633;49.932;10.884;2024-02-21T14:41:00;5.80;;;1.60;;
66721;SDS011;53633;49.932;10.884;2024-02-21T14:43:32;5.38;;;1.13;;
66721;SDS011;53633;49.932;10.884;2024-02-21T14:46:02;5.93;;;1.27;;
66721;SDS011;53633;49.932;10.884;2024-02-21T14:48:35;8.18;;;1.45;;